Time;durP1;ratioP1;P1;durP2;ratioP2;P2;SDS_P1;SDS_P2;PMS_P1;PMS_P2;Temp;Humidity;BMP_temperature;BMP_pressure;BME280_temperature;BME280_humidity;BME280_pressure;Samples;Min_cycle;Max_cycle;Signal;HPM_P1;HPM_P2
2023/01/21 00:01:17;;;;;;;39.83;22.42;;;-0.90;99.90;;;;;;5053553;28;20041;-57
2023/01/21 00:03:43;;;;;;;38.67;21.63;;;;;;;;;;5050982;28;20879;-57
2023/01/21 00:06:10;;;;;;;34.35;19.65;;;;;;;;;;5053140;28;20268;-57
2023/01/21 00:08:36;;;;;;;41.50;21.58;;;;;;;;;;5052929;28;20594;-57
2023/01/21 00:11:05;;;;;;;41.45;22.00;;;-1.00;99.90;;;;;;5054998;28;20056;-57
2023/01/21 00:13:33;;;;;;;42.25;23.15;;;;;;;;;;5053517;28;20084;-57
2023/01/21 00:15:59;;;;;;;39.20;21.70;;;;;;;;;;5053949;28;20048;-57
2023/01/21 00:18:25;;;;;;;38.63;22.80;;;;;;;;;;5054110;28;20075;-57
2023/01/21 00:20:51;;;;;;;38.60;20.45;;;;;;;;;;5054030;28;20523;-57
2023/01/21 00:23:17;;;;;;;39.33;21.13;;;;;;;;;;5054080;28;20754;-57
2023/01/21 00:25:43;;;;;;;36.10;20.85;;;;;;;;;;5054582;28;20527;-57
2023/01/21 00:28:09;;;;;;;38.20;21.52;;;;;;;;;;5054436;28;20676;-58
2023/01/21 00:30:35;;;;;;;40.63;22.65;;;;;;;;;;5053260;28;20051;-58
2023/01/21 00:33:02;;;;;;;39.97;20.92;;;;;;;;;;5053511;28;20044;-57
2023/01/21 00:35:28;;;;;;;38.65;20.90;;;;;;;;;;5054536;28;20137;-57
2023/01/21 00:37:54;;;;;;;39.10;20.67;;;;;;;;;;5052731;28;20063;-57
2023/01/21 00:40:20;;;;;;;39.22;21.00;;;;;;;;;;5052664;28;20551;-57
2023/01/21 00:42:47;;;;;;;44.60;22.17;;;;;;;;;;5051556;28;20118;-57
2023/01/21 00:45:13;;;;;;;42.42;22.05;;;;;;;;;;5053039;28;20101;-57
2023/01/21 00:47:39;;;;;;;41.45;21.52;;;;;;;;;;5053093;28;20105;-57
2023/01/21 00:50:06;;;;;;;42.35;22.13;;;;;;;;;;5052708;28;20304;-57
2023/01/21 00:52:32;;;;;;;39.50;22.33;;;;;;;;;;5052705;28;20044;-57
2023/01/21 00:54:58;;;;;;;46.72;23.27;;;;;;;;;;5052221;28;20796;-57
2023/01/21 00:57:24;;;;;;;48.63;23.17;;;;;;;;;;5052433;28;20120;-57
2023/01/21 00:59:50;;;;;;;46.33;23.02;;;;;;;;;;5053892;28;20068;-57
2023/01/21 01:02:16;;;;;;;44.35;22.42;;;;;;;;;;5052100;28;20051;-57
2023/01/21 01:04:42;;;;;;;39.25;21.33;;;;;;;;;;5051840;28;20056;-57
2023/01/21 01:07:09;;;;;;;47.00;23.38;;;;;;;;;;5052416;28;20960;-57
2023/01/21 01:09:35;;;;;;;42.42;21.38;;;;;;;;;;5054242;28;20052;-57
2023/01/21 01:12:01;;;;;;;42.90;21.65;;;;;;;;;;5051830;28;20083;-57
2023/01/21 01:14:27;;;;;;;46.30;23.33;;;;;;;;;;5051344;28;20045;-56
2023/01/21 01:16:53;;;;;;;43.53;22.52;;;;;;;;;;5051932;28;20073;-57
2023/01/21 01:19:19;;;;;;;42.17;21.35;;;;;;;;;;5052460;28;20041;-57
2023/01/21 01:21:45;;;;;;;44.42;22.15;;;;;;;;;;5052844;28;20040;-57
2023/01/21 01:24:11;;;;;;;40.95;21.88;;;;;;;;;;5052040;28;20059;-58
2023/01/21 01:26:37;;;;;;;42.83;22.58;;;;;;;;;;5051976;28;20528;-56
2023/01/21 01:29:04;;;;;;;48.20;23.80;;;;;;;;;;5051848;28;20059;-56
2023/01/21 01:31:30;;;;;;;46.35;22.02;;;;;;;;;;5051530;28;20428;-56
2023/01/21 01:33:56;;;;;;;39.58;21.35;;;;;;;;;;5053144;28;20233;-56
2023/01/21 01:36:23;;;;;;;43.35;21.80;;;;;;;;;;5056105;28;20186;-57
2023/01/21 01:38:50;;;;;;;45.30;22.13;;;;;;;;;;5056603;28;20045;-57
2023/01/21 01:41:17;;;;;;;41.17;20.55;;;;;;;;;;5055572;28;20036;-57
2023/01/21 01:43:49;;;;;;;48.42;20.58;;;;;;;;;;5056271;28;20052;-57
2023/01/21 01:46:15;;;;;;;47.65;22.20;;;;;;;;;;5056325;28;20095;-57
2023/01/21 01:48:43;;;;;;;44.00;21.73;;;;;;;;;;5057251;28;20121;-57
2023/01/21 01:51:09;;;;;;;46.30;22.00;;;;;;;;;;5057279;28;20048;-57
2023/01/21 01:53:36;;;;;;;38.55;20.23;;;;;;;;;;5056724;28;20520;-57
2023/01/21 01:56:03;;;;;;;38.63;21.30;;;;;;;;;;5057164;28;20055;-57
2023/01/21 01:58:30;;;;;;;42.75;21.33;;;;;;;;;;5057452;28;20134;-57
2023/01/21 02:00:56;;;;;;;45.05;23.20;;;;;;;;;;5056092;28;20051;-57
2023/01/21 02:06:07;;;;;;;46.03;22.92;;;;;;;;;;5057596;28;20139;-57
2023/01/21 02:08:35;;;;;;;41.60;21.50;;;;;;;;;;5056402;28;20033;-57
2023/01/21 02:11:01;;;;;;;42.22;20.85;;;;;;;;;;5055842;28;20044;-57
2023/01/21 02:13:29;;;;;;;43.63;21.73;;;;;;;;;;5055777;28;20080;-57
2023/01/21 02:15:58;;;;;;;42.50;21.50;;;;;;;;;;5056557;28;20044;-57
2023/01/21 02:18:24;;;;;;;38.50;19.55;;;;;;;;;;5055403;28;20401;-57
2023/01/21 02:21:05;;;;;;;43.72;20.80;;;;;;;;;;5055642;28;20609;-57
2023/01/21 02:23:43;;;;;;;44.03;21.02;;;;;;;;;;5055419;28;20160;-57
2023/01/21 02:26:15;;;;;;;39.85;21.00;;;;;;;;;;5054657;28;20134;-57
2023/01/21 02:28:47;;;;;;;44.70;21.45;;;;;;;;;;5055823;28;20102;-57
2023/01/21 02:31:13;;;;;;;;;;;;;;;;;;5053827;28;20131;-57
2023/01/21 02:33:45;;;;;;;39.92;19.30;;;;;;;;;;5055378;28;20276;-57
2023/01/21 02:36:30;;;;;;;41.55;19.10;;;;;;;;;;5054886;28;20447;-57
2023/01/21 02:39:14;;;;;;;42.20;20.52;;;;;;;;;;5054581;28;20123;-58
2023/01/21 02:41:55;;;;;;;48.00;21.65;;;;;;;;;;5054171;28;20375;-58
2023/01/21 02:44:41;;;;;;;40.60;19.52;;;;;;;;;;5054480;28;20041;-58
2023/01/21 02:47:15;;;;;;;41.45;20.75;;;;;;;;;;5052713;28;20094;-57
2023/01/21 02:49:44;;;;;;;41.58;22.60;;;;;;;;;;5055265;28;20040;-58
2023/01/21 02:52:17;;;;;;;44.03;22.25;;;;;;;;;;5055299;28;20059;-58
2023/01/21 02:54:50;;;;;;;45.38;20.70;;;;;;;;;;5054817;28;20044;-58
2023/01/21 02:57:19;;;;;;;44.25;21.40;;;;;;;;;;5054157;28;20080;-58
2023/01/21 02:59:47;;;;;;;41.70;21.08;;;;;;;;;;5054211;28;20943;-58
2023/01/21 03:02:16;;;;;;;43.35;20.73;;;;;;;;;;5054676;28;20064;-58
2023/01/21 03:05:02;;;;;;;44.40;22.58;;;;;;;;;;5054538;28;20455;-58
2023/01/21 03:07:28;;;;;;;38.95;21.20;;;;;;;;;;5053922;28;20139;-58
2023/01/21 03:09:59;;;;;;;50.25;22.85;;;;;;;;;;5054430;28;20496;-58
2023/01/21 03:12:25;;;;;;;47.30;22.98;;;;;;;;;;5054597;28;20040;-56
2023/01/21 03:17:59;;;;;;;44.25;21.90;;;;;;;;;;5055129;28;20054;-58
2023/01/21 03:20:29;;;;;;;41.78;21.90;;;;;;;;;;5054821;28;20451;-57
2023/01/21 03:22:58;;;;;;;46.10;22.45;;;;;;;;;;5054456;28;20547;-58
2023/01/21 03:25:26;;;;;;;44.88;21.77;;;;;;;;;;5053820;28;20568;-58
2023/01/21 03:27:53;;;;;;;40.92;20.88;;;;;;;;;;5054783;28;20059;-58
2023/01/21 03:30:21;;;;;;;41.28;21.20;;;;;;;;;;5055006;28;20052;-58
2023/01/21 03:32:48;;;;;;;41.38;20.45;;;;;;;;;;5053593;28;20045;-57
2023/01/21 03:35:17;;;;;;;36.13;20.48;;;;;;;;;;5054464;28;20044;-58
2023/01/21 03:37:48;;;;;;;41.50;19.85;;;;;;;;;;5053641;28;20190;-58
2023/01/21 03:40:22;;;;;;;35.13;19.42;;;;;;;;;;5052862;28;20041;-57
2023/01/21 03:42:55;;;;;;;39.08;19.88;;;;;;;;;;5052814;28;20041;-57
2023/01/21 03:45:41;;;;;;;39.53;21.15;;;;;;;;;;5053058;28;20048;-57
2023/01/21 03:48:16;;;;;;;46.33;23.65;;;;;;;;;;5052508;28;20048;-57
2023/01/21 03:50:45;;;;;;;47.20;23.08;;;;;;;;;;5052711;28;20382;-57
2023/01/21 03:53:11;;;;;;;48.75;22.15;;;;;;;;;;5053118;28;20055;-57
2023/01/21 03:55:37;;;;;;;49.78;25.73;;;;;;;;;;5053078;28;20044;-57
2023/01/21 03:58:03;;;;;;;52.30;23.35;;;;;;;;;;5052989;28;20040;-57
2023/01/21 04:00:29;;;;;;;53.08;25.67;;;;;;;;;;5053734;28;20040;-57
2023/01/21 04:02:55;;;;;;;52.20;23.98;;;;;;;;;;5052009;28;20051;-57
2023/01/21 04:05:22;;;;;;;49.15;24.90;;;;;;;;;;5053035;28;20436;-57
2023/01/21 04:07:48;;;;;;;50.00;25.48;;;;;;;;;;5051352;28;20135;-57
2023/01/21 04:10:14;;;;;;;56.92;26.73;;;;;;;;;;5053678;28;20060;-57
2023/01/21 04:12:40;;;;;;;59.60;27.88;;;;;;;;;;5052637;28;20041;-57
2023/01/21 04:15:06;;;;;;;56.85;27.70;;;;;;;;;;5052624;28;20041;-57
2023/01/21 04:17:32;;;;;;;58.45;27.90;;;;;;;;;;5052631;28;20040;-57
2023/01/21 04:19:58;;;;;;;60.25;27.67;;;;;;;;;;5052941;28;20127;-57
2023/01/21 04:22:24;;;;;;;60.90;27.83;;;;;;;;;;5053332;28;20039;-57
2023/01/21 04:24:51;;;;;;;53.88;25.58;;;;;;;;;;5052434;28;20118;-57
2023/01/21 04:27:17;;;;;;;55.03;27.52;;;;;;;;;;5051640;28;20169;-57
2023/01/21 04:29:43;;;;;;;59.55;27.52;;;;;;;;;;5053735;28;20135;-57
2023/01/21 04:32:09;;;;;;;60.40;28.45;;;;;;;;;;5053002;28;20045;-57
2023/01/21 04:34:35;;;;;;;67.70;29.58;;;;;;;;;;5053372;28;20124;-57
2023/01/21 04:37:01;;;;;;;65.05;28.75;;;;;;;;;;5053027;28;20219;-57
2023/01/21 04:39:27;;;;;;;53.40;26.80;;;;;;;;;;5053377;28;20040;-57
2023/01/21 04:41:53;;;;;;;51.45;28.30;;;;;;;;;;5054469;28;20603;-57
2023/01/21 04:44:19;;;;;;;54.28;26.33;;;;;;;;;;5053885;28;20041;-57
2023/01/21 04:46:45;;;;;;;61.85;28.35;;;;;;;;;;5051349;28;20078;-57
2023/01/21 04:49:11;;;;;;;56.45;27.90;;;;;;;;;;5053202;28;20601;-57
2023/01/21 04:51:37;;;;;;;62.53;27.98;;;;;;;;;;5054224;28;20040;-57
2023/01/21 04:54:03;;;;;;;49.45;27.23;;;;;;;;;;5053968;28;20476;-57
2023/01/21 04:56:29;;;;;;;57.53;28.67;;;;;;;;;;5053540;28;20033;-57
2023/01/21 04:58:55;;;;;;;57.50;29.08;;;;;;;;;;5052907;28;20420;-57
2023/01/21 05:01:22;;;;;;;58.25;27.65;;;;;;;;;;5052882;28;20052;-57
2023/01/21 05:03:48;;;;;;;48.97;26.25;;;;;;;;;;5051828;28;20566;-57
2023/01/21 05:06:14;;;;;;;54.10;27.05;;;;;;;;;;5051824;28;20400;-56
2023/01/21 05:08:40;;;;;;;49.95;25.73;;;;;;;;;;5051717;28;20045;-57
2023/01/21 05:11:10;;;;;;;49.70;25.10;;;;;;;;;;5054325;28;20036;-57
2023/01/21 05:13:36;;;;;;;50.95;25.00;;;;;;;;;;5053367;28;20048;-57
2023/01/21 05:16:03;;;;;;;54.25;27.90;;;;;;;;;;5055430;28;20040;-57
2023/01/21 05:18:29;;;;;;;52.40;27.05;;;;;;;;;;5056361;28;20036;-57
2023/01/21 05:20:55;;;;;;;53.65;26.35;;;;;;;;;;5055979;28;20600;-57
2023/01/21 05:23:21;;;;;;;55.85;27.45;;;;;;;;;;5056467;28;20051;-57
2023/01/21 05:25:51;;;;;;;63.15;27.90;;;;;;;;;;5055711;28;20048;-57
2023/01/21 05:28:17;;;;;;;57.97;27.08;;;;;;;;;;5056222;28;20044;-56
2023/01/21 05:30:43;;;;;;;57.80;27.40;;;;;;;;;;5056487;28;20144;-57
2023/01/21 05:33:09;;;;;;;56.72;29.33;;;;;;;;;;5055497;28;20152;-57
2023/01/21 05:35:35;;;;;;;51.30;27.45;;;;;;;;;;5056014;28;20044;-57
2023/01/21 05:38:01;;;;;;;58.60;27.95;;;;;;;;;;5055206;28;20072;-57
2023/01/21 05:40:27;;;;;;;48.45;25.48;;;;;;;;;;5055664;28;20477;-57
2023/01/21 05:42:53;;;;;;;52.78;27.20;;;;;;;;;;5055943;28;20149;-56
2023/01/21 05:45:19;;;;;;;52.95;28.02;;;;;;;;;;5055895;28;20052;-57
2023/01/21 05:47:45;;;;;;;59.35;29.75;;;;;;;;;;5055337;28;20056;-56
2023/01/21 05:50:12;;;;;;;52.42;27.30;;;;;;;;;;5055244;28;20094;-56
2023/01/21 05:52:38;;;;;;;57.00;28.15;;;;;;;;;;5055519;28;20044;-56
2023/01/21 05:55:05;;;;;;;55.90;28.13;;;;;;;;;;5056593;28;20098;-57
2023/01/21 05:57:31;;;;;;;56.13;28.63;;;;;;;;;;5056248;28;20440;-56
2023/01/21 05:59:57;;;;;;;61.35;28.75;;;;;;;;;;5057080;28;20040;-56
2023/01/21 06:02:24;;;;;;;52.22;26.60;;;;;;;;;;5056351;28;20141;-56
2023/01/21 06:04:50;;;;;;;54.17;26.95;;;;;;;;;;5055854;28;20040;-56
2023/01/21 06:07:16;;;;;;;47.15;26.10;;;;;;;;;;5056706;28;20132;-56
2023/01/21 06:09:42;;;;;;;50.00;27.35;;;;;;;;;;5057521;28;20048;-57
2023/01/21 06:12:08;;;;;;;53.55;26.95;;;;;;;;;;5057297;28;20056;-56
2023/01/21 06:14:34;;;;;;;54.75;28.17;;;;;;;;;;5055294;28;20079;-56
2023/01/21 06:17:00;;;;;;;58.65;26.67;;;;;;;;;;5055953;28;20037;-57
2023/01/21 06:19:26;;;;;;;50.80;24.98;;;;;;;;;;5056302;28;20040;-56
2023/01/21 06:21:52;;;;;;;49.85;25.00;;;;;;;;;;5054971;28;20199;-56
2023/01/21 06:24:19;;;;;;;56.35;27.17;;;;;;;;;;5053399;28;20068;-56
2023/01/21 06:26:45;;;;;;;47.78;26.63;;;;;;;;;;5053889;28;20047;-57
2023/01/21 06:29:11;;;;;;;50.95;25.98;;;;;;;;;;5053958;28;20056;-56
2023/01/21 06:31:38;;;;;;;52.53;25.92;;;;;;;;;;5054922;28;20509;-56
2023/01/21 06:34:04;;;;;;;52.13;25.75;;;;;;;;;;5053656;28;20102;-56
2023/01/21 06:36:30;;;;;;;53.85;26.30;;;;;;;;;;5053439;28;20132;-56
2023/01/21 06:38:56;;;;;;;49.88;24.67;;;;;;;;;;5053255;28;20032;-56
2023/01/21 06:41:22;;;;;;;50.33;26.25;;;;;;;;;;5053039;28;20044;-56
2023/01/21 06:43:48;;;;;;;51.78;25.77;;;;;;;;;;5029654;28;20360;-56
2023/01/21 06:46:14;;;;;;;45.95;24.50;;;;;;;;;;5084870;28;20064;-57
2023/01/21 06:48:42;;;;;;;49.55;26.02;;;;;;;;;;5053362;28;20739;-56
2023/01/21 06:51:08;;;;;;;48.45;25.73;;;;;;;;;;5052514;28;20045;-56
2023/01/21 06:53:34;;;;;;;55.08;25.70;;;;;;;;;;5054090;28;20041;-56
2023/01/21 06:56:00;;;;;;;48.08;25.20;;;;;;;;;;5055027;28;20145;-56
2023/01/21 06:58:26;;;;;;;47.92;25.23;;;;;;;;;;5051493;28;20040;-56
2023/01/21 07:00:55;;;;;;;46.95;25.30;;;;;;;;;;5054229;28;20040;-56
2023/01/21 07:03:21;;;;;;;47.63;24.75;;;;;;;;;;5052586;28;20074;-55
2023/01/21 07:05:47;;;;;;;52.60;25.83;;;;;;;;;;5053949;28;20044;-56
2023/01/21 07:08:13;;;;;;;55.15;26.83;;;;;;;;;;5053180;28;20119;-56
2023/01/21 07:10:39;;;;;;;63.95;32.10;;;;;;;;;;5053449;28;20036;-56
2023/01/21 07:13:05;;;;;;;51.50;28.48;;;;;;;;;;5053684;28;20143;-56
2023/01/21 07:15:32;;;;;;;69.38;33.47;;;;;;;;;;5053851;28;20040;-55
2023/01/21 07:17:58;;;;;;;54.55;29.25;;;;;;;;;;5052684;28;20048;-55
2023/01/21 07:20:24;;;;;;;59.28;28.95;;;;;;;;;;5053957;28;20063;-56
2023/01/21 07:22:51;;;;;;;55.85;29.90;;;;;;;;;;5054849;28;20044;-56
2023/01/21 07:25:17;;;;;;;55.78;28.48;;;;;;;;;;5055337;28;20532;-55
2023/01/21 07:27:43;;;;;;;51.45;27.17;;;;;;;;;;5054636;28;20044;-56
2023/01/21 07:30:17;;;;;;;54.58;26.05;;;;;;;;;;5054535;28;20047;-56
2023/01/21 07:32:43;;;;;;;57.67;28.80;;;;;;;;;;5053068;28;20060;-56
2023/01/21 07:35:09;;;;;;;58.22;28.98;;;;;;;;;;5053095;28;20094;-56
2023/01/21 07:37:36;;;;;;;50.95;25.48;;;;;;;;;;5054288;28;20140;-56
2023/01/21 07:40:02;;;;;;;54.08;27.85;;;;;;;;;;5053733;28;20098;-56
2023/01/21 07:42:28;;;;;;;62.10;28.90;;;;;;;;;;5051175;28;20037;-56
2023/01/21 07:44:55;;;;;;;60.80;27.95;;;;;;;;;;5049741;28;20599;-56
2023/01/21 07:47:22;;;;;;;53.55;27.58;;;;;;;;;;5049340;28;20059;-56
2023/01/21 07:49:51;;;;;;;56.25;27.98;;;;;;;;;;5051669;28;20033;-56
2023/01/21 07:52:17;;;;;;;57.92;28.90;;;;;;;;;;5051631;28;20037;-57
2023/01/21 07:54:43;;;;;;;69.55;31.08;;;;;;;;;;5052621;28;20123;-57
2023/01/21 07:57:09;;;;;;;55.33;29.05;;;;;;;;;;5052238;28;20500;-57
2023/01/21 07:59:35;;;;;;;55.22;29.75;;;;;;;;;;5053229;28;20175;-56
2023/01/21 08:02:01;;;;;;;61.03;30.85;;;;;;;;;;5052120;28;20044;-56
2023/01/21 08:04:27;;;;;;;62.45;29.95;;;;;;;;;;5052268;28;20552;-57
2023/01/21 08:06:55;;;;;;;62.35;28.70;;;;;;;;;;5051387;28;20051;-57
2023/01/21 08:09:24;;;;;;;55.10;28.23;;;;;;;;;;5051585;28;20052;-57
2023/01/21 08:11:51;;;;;;;55.00;27.58;;;;;;;;;;5051210;28;20037;-57
2023/01/21 08:14:17;;;;;;;47.50;24.38;;;;;;;;;;5052781;28;20101;-57
2023/01/21 08:16:43;;;;;;;46.88;24.33;;;;;;;;;;5053039;28;20040;-57
2023/01/21 08:19:09;;;;;;;51.85;26.60;;;;;;;;;;5049995;28;20224;-57
2023/01/21 08:21:35;;;;;;;56.33;28.02;;;;;;;;;;5050872;28;21266;-57
2023/01/21 08:24:01;;;;;;;55.60;27.88;;;;;;;;;;5051126;28;22085;-57
2023/01/21 08:26:27;;;;;;;58.45;29.67;;;;;;;;;;5051544;28;20047;-56
2023/01/21 08:28:54;;;;;;;62.90;30.17;;;;;;;;;;5051184;28;20058;-56
2023/01/21 08:31:20;;;;;;;66.32;31.65;;;;;;;;;;5051575;28;20073;-56
2023/01/21 08:33:46;;;;;;;59.75;29.50;;;;;;;;;;5051651;28;20051;-57
2023/01/21 08:36:12;;;;;;;67.65;32.83;;;;;;;;;;5052227;28;20036;-57
2023/01/21 08:38:39;;;;;;;65.22;31.98;;;;;;;;;;5052787;28;20044;-57
2023/01/21 08:41:06;;;;;;;68.35;33.45;;;;;;;;;;5052501;28;20041;-56
2023/01/21 08:43:32;;;;;;;66.63;34.08;;;;;;;;;;5052480;28;20145;-56
2023/01/21 08:46:00;;;;;;;65.97;33.53;;;;;;;;;;5049855;28;20060;-56
2023/01/21 08:48:26;;;;;;;64.05;34.03;;;;;;;;;;5051035;28;20143;-57
2023/01/21 08:50:52;;;;;;;68.95;35.30;;;;;;;;;;5051361;28;20451;-54
2023/01/21 08:53:18;;;;;;;63.50;34.85;;;;;;;;;;5052131;28;20051;-54
2023/01/21 08:55:45;;;;;;;64.20;33.92;;;;;;;;;;5054330;28;20036;-55
2023/01/21 08:58:11;;;;;;;53.00;32.13;;;;;;;;;;5053187;28;20468;-54
2023/01/21 09:00:37;;;;;;;48.95;31.00;;;;;;;;;;5053958;28;20044;-55
2023/01/21 09:03:03;;;;;;;49.95;30.95;;;;;;;;;;5052030;28;20064;-56
2023/01/21 09:05:29;;;;;;;45.78;30.38;;;;;;;;;;5053996;28;20391;-56
2023/01/21 09:07:55;;;;;;;48.70;33.70;;;;;;;;;;5051826;28;20071;-56
2023/01/21 09:13:07;;;;;;;43.38;28.65;;;5.20;99.90;;;;;;5050592;28;20044;-56
2023/01/21 09:15:40;;;;;;;40.50;28.75;;;5.50;99.90;;;;;;5050528;28;20414;-55
2023/01/21 09:18:06;;;;;;;41.08;28.80;;;;;;;;;;5050787;28;20044;-56
2023/01/21 09:20:32;;;;;;;40.47;27.73;;;;;;;;;;5051274;28;20079;-55
2023/01/21 09:22:59;;;;;;;51.08;28.55;;;;;;;;;;5051197;28;20152;-56
2023/01/21 09:25:25;;;;;;;40.65;29.17;;;;;;;;;;5051679;28;20467;-56
2023/01/21 09:27:51;;;;;;;42.30;28.20;;;5.70;99.90;;;;;;5050911;28;20342;-56
2023/01/21 09:30:17;;;;;;;36.65;26.17;;;6.00;99.90;;;;;;5052711;28;20101;-56
2023/01/21 09:32:43;;;;;;;37.65;27.67;;;6.00;99.90;;;;;;5051316;28;20037;-55
2023/01/21 09:35:09;;;;;;;40.97;26.77;;;;;;;;;;5052589;28;20080;-55
2023/01/21 09:37:36;;;;;;;38.05;26.60;;;6.00;99.90;;;;;;5051586;28;20040;-55
2023/01/21 09:40:02;;;;;;;39.55;25.95;;;;;;;;;;5051875;28;20052;-55
2023/01/21 09:42:31;;;;;;;35.90;26.20;;;5.90;99.90;;;;;;5049989;28;20109;-55
2023/01/21 09:44:59;;;;;;;35.97;25.27;;;5.40;99.90;;;;;;5049561;28;20059;-56
2023/01/21 09:47:38;;;;;;;38.60;25.52;;;5.20;99.90;;;;;;5050850;28;20051;-53
2023/01/21 09:50:19;;;;;;;35.97;25.67;;;5.10;99.90;;;;;;5051552;28;20041;-55
2023/01/21 09:52:47;;;;;;;38.25;27.17;;;5.10;99.90;;;;;;5051289;28;20101;-55
2023/01/21 09:55:37;;;;;;;34.40;25.40;;;5.10;99.90;;;;;;5051698;28;20078;-55
2023/01/21 09:58:03;;;;;;;37.08;24.42;;;;;;;;;;5054268;28;20543;-54
2023/01/21 10:00:51;;;;;;;35.90;25.20;;;4.60;99.90;;;;;;5057276;28;20583;-55
2023/01/21 10:03:49;;;;;;;36.30;24.77;;;4.60;99.90;;;;;;5054967;28;20036;-55
2023/01/21 10:06:17;;;;;;;32.85;24.20;;;4.90;99.90;;;;;;5054890;28;20048;-55
2023/01/21 10:08:58;;;;;;;37.13;25.85;;;4.90;99.90;;;;;;5055571;28;20060;-56
2023/01/21 10:11:46;;;;;;;39.42;24.58;;;4.90;99.90;;;;;;5056642;28;20045;-56
2023/01/21 10:14:12;;;;;;;37.45;25.50;;;;;;;;;;5055754;28;21364;-55
2023/01/21 10:16:49;;;;;;;38.30;24.92;;;4.90;99.90;;;;;;5057027;28;20040;-56
2023/01/21 10:19:24;;;;;;;38.90;24.20;;;5.00;99.90;;;;;;5055336;28;20041;-56
2023/01/21 10:21:56;;;;;;;36.83;24.77;;;5.40;99.90;;;;;;5055241;28;20056;-55
2023/01/21 10:24:29;;;;;;;36.75;24.05;;;5.20;99.90;;;;;;5056056;28;20594;-56
2023/01/21 10:26:56;;;;;;;42.72;25.88;;;4.90;99.90;;;;;;5055851;28;20044;-56
2023/01/21 10:29:24;;;;;;;36.38;24.27;;;4.40;99.90;;;;;;5056031;28;20044;-56
2023/01/21 10:31:58;;;;;;;36.80;24.42;;;4.00;99.90;;;;;;5054585;28;20125;-56
2023/01/21 10:34:27;;;;;;;37.35;25.77;;;3.70;99.90;;;;;;5054186;28;20050;-56
2023/01/21 10:37:04;;;;;;;40.30;26.52;;;3.60;99.90;;;;;;5054710;28;20044;-56
2023/01/21 10:39:52;;;;;;;38.30;24.60;;;3.20;99.90;;;;;;5054679;28;20041;-56
2023/01/21 10:42:27;;;;;;;37.28;24.05;;;3.20;99.90;;;;;;5054732;28;20047;-56
2023/01/21 10:44:58;;;;;;;39.97;23.67;;;2.90;99.90;;;;;;5053165;28;20122;-56
2023/01/21 10:47:59;;;;;;;35.72;23.05;;;2.90;99.90;;;;;;5052338;28;20554;-56
2023/01/21 10:50:25;;;;;;;36.50;23.60;;;;;;;;;;5053878;28;20063;-56
2023/01/21 10:53:03;;;;;;;40.55;25.55;;;2.80;99.90;;;;;;5053962;28;20040;-56
2023/01/21 10:55:44;;;;;;;38.92;23.13;;;3.00;99.90;;;;;;5053123;28;20060;-57
2023/01/21 10:58:47;;;;;;;41.45;25.02;;;3.10;99.90;;;;;;5052729;28;20040;-56
2023/01/21 11:01:18;;;;;;;36.30;23.95;;;3.10;99.90;;;;;;5052220;28;20580;-57
2023/01/21 11:03:51;;;;;;;36.33;23.65;;;3.20;99.90;;;;;;5052198;28;20071;-56
2023/01/21 11:06:19;;;;;;;42.63;24.33;;;3.20;99.90;;;;;;5055102;28;20064;-56
2023/01/21 11:08:48;;;;;;;36.03;23.80;;;3.30;99.90;;;;;;5052013;28;20044;-55
2023/01/21 11:11:25;;;;;;;37.10;24.05;;;3.40;99.90;;;;;;5042345;28;20052;-56
2023/01/21 11:13:51;;;;;;;35.10;22.50;;;;;;;;;;5054336;28;20151;-56
2023/01/21 11:16:32;;;;;;;37.83;25.00;;;3.90;99.90;;;;;;5055073;28;20059;-55
2023/01/21 11:18:58;;;;;;;38.90;24.10;;;;;;;;;;5054127;28;20528;-56
2023/01/21 11:21:25;;;;;;;36.95;24.55;;;3.50;99.90;;;;;;5054521;28;20532;-55
2023/01/21 11:23:59;;;;;;;39.25;25.38;;;3.40;99.90;;;;;;5055926;28;20164;-55
2023/01/21 11:26:35;;;;;;;33.40;22.70;;;3.50;99.90;;;;;;5055026;28;20127;-54
2023/01/21 11:29:06;;;;;;;33.40;21.90;;;3.50;99.90;;;;;;5053813;28;20049;-55
2023/01/21 11:31:33;;;;;;;30.77;21.08;;;;;;;;;;5055241;28;20050;-56
2023/01/21 11:34:12;;;;;;;32.50;21.08;;;3.70;99.90;;;;;;5049902;28;20072;-55
2023/01/21 11:36:56;;;;;;;31.85;19.95;;;3.70;99.90;;;;;;5053884;28;20044;-56
2023/01/21 11:39:23;;;;;;;28.20;18.67;;;;;;;;;;5054201;28;20119;-56
2023/01/21 11:41:54;;;;;;;26.77;17.30;;;3.90;99.90;;;;;;5055274;28;20043;-56
2023/01/21 11:44:21;;;;;;;27.20;18.33;;;3.80;99.90;;;;;;5054015;28;20064;-56
2023/01/21 11:46:47;;;;;;;27.98;18.30;;;;;;;;;;5054841;28;20055;-56
2023/01/21 11:49:26;;;;;;;26.85;16.85;;;4.00;99.90;;;;;;5052990;28;20040;-56
2023/01/21 11:52:14;;;;;;;26.30;15.80;;;3.80;99.90;;;;;;5052628;28;20091;-56
2023/01/21 11:54:40;;;;;;;24.58;16.13;;;;;;;;;;5053328;28;20047;-56
2023/01/21 11:57:18;;;;;;;23.00;15.95;;;3.90;99.90;;;;;;5052712;28;20055;-56
2023/01/21 11:59:46;;;;;;;25.70;17.67;;;4.00;99.90;;;;;;5051944;28;20046;-56
2023/01/21 12:02:17;;;;;;;23.08;15.60;;;3.90;99.90;;;;;;5050968;28;20753;-55
2023/01/21 12:04:47;;;;;;;25.98;17.02;;;3.80;99.90;;;;;;5051269;28;20094;-56
2023/01/21 12:07:27;;;;;;;27.45;16.65;;;3.70;99.90;;;;;;5052203;28;20111;-56
2023/01/21 12:10:28;;;;;;;23.83;15.40;;;3.80;99.90;;;;;;5053362;28;20044;-56
2023/01/21 12:13:26;;;;;;;23.75;15.85;;;3.90;99.90;;;;;;5043006;28;20048;-56
2023/01/21 12:15:52;;;;;;;21.98;13.65;;;;;;;;;;5053396;28;20631;-56
2023/01/21 12:18:38;;;;;;;23.17;14.70;;;3.90;99.90;;;;;;5051268;28;20032;-56
2023/01/21 12:21:05;;;;;;;22.25;14.05;;;;;;;;;;5052021;28;20114;-56
2023/01/21 12:24:01;;;;;;;22.63;14.55;;;4.00;99.90;;;;;;5051908;28;20162;-56
2023/01/21 12:26:45;;;;;;;25.10;15.50;;;4.00;99.90;;;;;;5051926;28;20211;-55
2023/01/21 12:29:34;;;;;;;19.67;13.90;;;3.90;99.90;;;;;;5051548;28;20041;-55
2023/01/21 12:32:12;;;;;;;21.92;13.88;;;3.90;99.90;;;;;;5052034;28;20050;-56
2023/01/21 12:34:50;;;;;;;17.90;12.20;;;3.90;99.90;;;;;;5049904;28;20516;-56
2023/01/21 12:37:30;;;;;;;17.23;11.88;;;4.00;99.90;;;;;;5053015;28;20052;-57
2023/01/21 12:40:00;;;;;;;19.98;13.45;;;3.90;99.90;;;;;;5051229;28;20040;-56
2023/01/21 12:42:36;;;;;;;19.55;11.85;;;3.80;99.90;;;;;;5050883;28;20062;-55
2023/01/21 12:45:15;;;;;;;17.02;11.20;;;3.90;99.90;;;;;;5051391;28;20055;-56
2023/01/21 12:47:49;;;;;;;21.73;12.13;;;4.10;99.90;;;;;;5051188;28;20536;-56
2023/01/21 12:50:21;;;;;;;17.75;11.63;;;3.90;99.90;;;;;;5051167;28;20106;-56
2023/01/21 12:53:05;;;;;;;19.13;11.15;;;3.90;99.90;;;;;;5050674;28;20048;-56
2023/01/21 12:56:08;;;;;;;17.35;12.15;;;4.10;99.90;;;;;;5051396;28;20040;-56
2023/01/21 12:59:07;;;;;;;16.08;10.57;;;4.00;99.90;;;;;;5052149;28;20111;-55
2023/01/21 13:01:45;;;;;;;15.32;10.63;;;3.90;99.90;;;;;;5052500;28;20045;-56
2023/01/21 13:04:57;;;;;;;16.38;10.35;;;4.00;99.90;;;;;;5051985;28;20045;-55
2023/01/21 13:07:30;;;;;;;15.38;9.43;;;3.90;99.90;;;;;;5052591;28;20729;-57
2023/01/21 13:10:13;;;;;;;15.13;9.95;;;4.00;99.90;;;;;;5052307;28;20044;-55
2023/01/21 13:12:42;;;;;;;15.65;9.82;;;3.80;99.90;;;;;;5053005;28;20048;-56
2023/01/21 13:15:11;;;;;;;11.90;7.97;;;3.70;99.90;;;;;;5051812;28;20429;-56
2023/01/21 13:17:41;;;;;;;10.32;7.43;;;3.70;99.90;;;;;;5051803;28;20094;-55
2023/01/21 13:20:14;;;;;;;10.43;7.80;;;3.60;99.90;;;;;;5051881;28;20935;-56
2023/01/21 13:23:06;;;;;;;11.85;7.32;;;3.70;99.90;;;;;;5052329;28;20051;-56
2023/01/21 13:25:48;;;;;;;10.18;6.38;;;3.40;99.90;;;;;;5053420;28;20102;-55
2023/01/21 13:28:29;;;;;;;9.98;6.05;;;3.40;99.90;;;;;;5052291;28;20071;-55
2023/01/21 13:31:17;;;;;;;9.60;5.43;;;3.20;99.90;;;;;;5054122;28;20068;-55
2023/01/21 13:34:14;;;;;;;9.38;6.10;;;3.10;99.90;;;;;;5056425;28;20684;-56
2023/01/21 13:37:00;;;;;;;10.85;7.43;;;3.00;99.90;;;;;;5055305;28;20062;-55
2023/01/21 13:39:41;;;;;;;10.63;6.95;;;3.10;99.90;;;;;;5054477;28;20991;-55
2023/01/21 13:42:08;;;;;;;12.65;6.00;;;;;;;;;;5055212;28;20045;-57
2023/01/21 13:45:05;;;;;;;8.00;5.32;;;3.20;99.90;;;;;;5054685;28;20055;-56
2023/01/21 13:47:53;;;;;;;8.43;4.90;;;3.20;99.90;;;;;;5054971;28;20264;-56
2023/01/21 13:50:35;;;;;;;8.45;4.97;;;3.40;99.90;;;;;;5055523;28;20127;-56
2023/01/21 13:53:26;;;;;;;7.05;4.38;;;3.30;99.90;;;;;;5054916;28;20044;-56
2023/01/21 13:56:13;;;;;;;6.78;4.38;;;3.30;99.90;;;;;;5055218;28;20512;-55
2023/01/21 13:58:51;;;;;;;7.53;4.15;;;3.40;99.90;;;;;;5054983;28;20127;-56
2023/01/21 14:01:17;;;;;;;6.75;3.72;;;;;;;;;;5056361;28;20048;-56
2023/01/21 14:03:53;;;;;;;6.97;4.72;;;3.50;99.90;;;;;;5055017;28;20083;-56
2023/01/21 14:06:31;;;;;;;11.32;5.43;;;3.50;99.90;;;;;;5055824;28;20040;-55
2023/01/21 14:09:21;;;;;;;7.82;5.15;;;3.50;99.90;;;;;;5054557;28;20050;-56
2023/01/21 14:12:00;;;;;;;8.95;5.10;;;3.40;99.90;;;;;;5055008;28;20045;-57
2023/01/21 14:14:37;;;;;;;9.77;4.93;;;3.30;99.90;;;;;;5054245;28;20121;-56